Time;durP1;ratioP1;P1;durP2;ratioP2;P2;SDS_P1;SDS_P2;PMS_P1;PMS_P2;Temp;Humidity;BMP_temperature;BMP_pressure;BME280_temperature;BME280_humidity;BME280_pressure;Samples;Min_cycle;Max_cycle;Signal;HPM_P1;HPM_P2
2022/09/01 00:00:27;;;;;;;17.67;15.77;;;;;;;14.12;100.00;98367.31;5109061;28;20595;-70
2022/09/01 00:02:54;;;;;;;16.43;13.47;;;;;;;14.13;100.00;98362.84;5108857;28;20225;-70
2022/09/01 00:05:22;;;;;;;16.70;14.47;;;;;;;14.09;100.00;98367.56;5108924;28;20302;-70
2022/09/01 00:07:49;;;;;;;17.13;15.30;;;;;;;14.14;100.00;98364.53;5106857;28;20230;-70
2022/09/01 00:10:16;;;;;;;16.47;14.40;;;;;;;14.11;100.00;98367.44;5108346;28;20274;-70
2022/09/01 00:12:44;;;;;;;16.90;14.93;;;;;;;14.12;100.00;98362.00;5110360;28;20274;-70
2022/09/01 00:15:13;;;;;;;18.60;15.63;;;;;;;14.15;100.00;98374.19;5109463;28;20524;-70
2022/09/01 00:17:40;;;;;;;18.63;15.33;;;;;;;14.22;100.00;98363.00;5106675;28;20223;-70
2022/09/01 00:20:07;;;;;;;16.43;14.73;;;;;;;14.30;100.00;98359.72;5107390;28;20278;-70
2022/09/01 00:22:34;;;;;;;16.77;14.77;;;;;;;14.30;100.00;98365.03;5110187;28;20218;-70
2022/09/01 00:25:01;;;;;;;18.87;16.00;;;;;;;14.30;100.00;98359.72;5109890;28;20257;-70
2022/09/01 00:27:28;;;;;;;16.27;14.60;;;;;;;14.34;100.00;98372.63;5106354;28;20704;-70
2022/09/01 00:29:55;;;;;;;17.90;15.70;;;;;;;14.34;100.00;98361.16;5104985;28;20226;-70
2022/09/01 00:32:24;;;;;;;16.57;14.80;;;;;;;14.32;100.00;98363.09;5109937;28;20226;-70
2022/09/01 00:34:50;;;;;;;20.10;15.60;;;;;;;14.30;100.00;98359.72;5109954;28;20229;-70
2022/09/01 00:37:17;;;;;;;17.20;14.70;;;;;;;14.27;100.00;98362.63;5106593;28;20269;-70
2022/09/01 00:39:44;;;;;;;17.50;14.80;;;;;;;14.27;100.00;98359.94;5106264;28;20263;-70
2022/09/01 00:42:10;;;;;;;18.57;15.17;;;;;;;14.24;100.00;98360.22;5109491;28;20229;-70
2022/09/01 00:44:37;;;;;;;18.53;15.07;;;;;;;14.21;100.00;98358.66;5109946;28;20629;-70
2022/09/01 00:47:05;;;;;;;16.53;14.83;;;;;;;14.18;100.00;98361.50;5107636;28;20274;-70
2022/09/01 00:49:38;;;;;;;16.60;13.80;;;;;;;14.10;100.00;98357.75;5106071;28;20691;-70
2022/09/01 00:52:08;;;;;;;16.20;13.97;;;;;;;14.06;100.00;98359.81;5109158;28;20315;-70
2022/09/01 00:54:44;;;;;;;15.57;13.97;;;;;;;14.00;100.00;98351.50;5107789;28;20234;-70
2022/09/01 00:57:12;;;;;;;17.50;15.27;;;;;;;14.03;100.00;98351.25;5098457;28;20279;-70
2022/09/01 00:59:54;;;;;;;17.30;15.10;;;;;;;14.08;100.00;98357.03;5105986;28;20226;-70
2022/09/01 01:02:21;;;;;;;15.80;13.70;;;;;;;14.06;100.00;98356.34;5109651;28;20707;-70
2022/09/01 01:04:51;;;;;;;17.63;14.43;;;;;;;14.04;100.00;98347.63;5108210;28;20221;-70
2022/09/01 01:07:21;;;;;;;17.13;15.20;;;;;;;14.04;100.00;98352.94;5105857;28;20227;-70
2022/09/01 01:09:48;;;;;;;15.27;13.70;;;;;;;14.03;100.00;98351.25;5107607;28;20313;-70
2022/09/01 01:12:17;;;;;;;17.27;14.27;;;;;;;14.03;100.00;98356.56;5109366;28;20608;-70
2022/09/01 01:14:46;;;;;;;16.57;14.87;;;;;;;13.99;100.00;98349.81;5108112;28;20225;-70
2022/09/01 01:17:13;;;;;;;16.07;14.37;;;;;;;13.94;100.00;98358.13;5105839;28;20277;-70
2022/09/01 01:25:22;;;;;;;15.30;13.47;;;;;;;13.76;100.00;98356.09;5101408;28;20654;-70
2022/09/01 01:27:50;;;;;;;16.63;14.27;;;;;;;13.70;100.00;98353.91;5109041;28;20225;-70
2022/09/01 01:30:18;;;;;;;16.53;14.47;;;;;;;13.64;100.00;98349.09;5108066;28;20225;-70
2022/09/01 01:32:46;;;;;;;15.93;14.00;;;;;;;13.59;100.00;98356.56;5106447;28;20218;-70
2022/09/01 01:35:22;;;;;;;16.87;15.07;;;;;;;13.57;100.00;98351.34;5105516;28;20232;-70
2022/09/01 01:37:49;;;;;;;15.17;13.57;;;;;;;13.57;100.00;98353.19;5092554;28;20225;-70
2022/09/01 01:40:20;;;;;;;15.00;13.40;;;;;;;13.56;100.00;98351.50;5109071;28;20252;-70
2022/09/01 01:42:52;;;;;;;15.27;13.17;;;;;;;13.54;100.00;98354.28;5097691;28;20582;-70
2022/09/01 01:45:21;;;;;;;15.33;13.73;;;;;;;13.52;100.00;98352.69;5105886;28;20230;-70
2022/09/01 01:47:52;;;;;;;15.83;13.53;;;;;;;13.50;100.00;98357.28;5110856;28;20233;-70
2022/09/01 01:50:19;;;;;;;15.07;13.30;;;;;;;13.50;100.00;98354.63;5112787;28;20228;-70
2022/09/01 01:52:46;;;;;;;14.50;13.00;;;;;;;13.45;100.00;98354.13;5109365;28;20291;-70
2022/09/01 01:55:13;;;;;;;16.33;13.40;;;;;;;13.42;100.00;98352.56;5109597;28;20251;-70
2022/09/01 01:57:48;;;;;;;15.23;13.53;;;;;;;13.40;100.00;98354.50;5112978;28;20263;-70
2022/09/01 02:00:19;;;;;;;16.43;14.27;;;;;;;13.39;100.00;98358.09;5112298;28;20228;-70
2022/09/01 02:02:51;;;;;;;16.03;14.40;;;;;;;13.36;100.00;98357.47;5109364;28;20265;-70
2022/09/01 02:05:23;;;;;;;16.10;14.40;;;;;;;13.32;100.00;98353.38;5111040;28;20576;-70
2022/09/01 02:07:54;;;;;;;16.20;14.23;;;;;;;13.29;100.00;98361.56;5112936;28;20652;-70
2022/09/01 02:10:23;;;;;;;15.93;14.20;;;;;;;13.28;100.00;98362.53;5110858;28;20304;-70
2022/09/01 02:12:50;;;;;;;18.70;15.00;;;;;;;13.29;100.00;98356.25;5108985;28;20229;-70
2022/09/01 02:15:18;;;;;;;18.37;15.47;;;;;;;13.31;100.00;98356.97;5109934;28;20258;-70
2022/09/01 02:17:45;;;;;;;20.73;16.97;;;;;;;13.34;100.00;98362.06;5112613;28;20328;-70
2022/09/01 02:20:15;;;;;;;18.47;16.03;;;;;;;13.35;100.00;98363.75;5109444;28;20228;-70
2022/09/01 02:22:43;;;;;;;18.70;15.37;;;;;;;13.35;100.00;98359.31;5109001;28;20229;-70
2022/09/01 02:25:10;;;;;;;18.17;15.87;;;;;;;13.37;100.00;98349.41;5110814;28;20272;-70
2022/09/01 02:27:38;;;;;;;17.07;15.27;;;;;;;13.35;100.00;98356.66;5112523;28;20254;-70
2022/09/01 02:30:09;;;;;;;18.40;16.00;;;;;;;13.36;100.00;98352.16;5111080;28;20634;-69
2022/09/01 02:32:37;;;;;;;17.77;14.83;;;;;;;13.39;100.00;98357.25;5108699;28;20229;-69
2022/09/01 02:35:08;;;;;;;16.00;14.30;;;;;;;13.39;100.00;98357.25;5110485;28;20241;-69
2022/09/01 02:37:38;;;;;;;18.07;15.50;;;;;;;13.35;100.00;98358.44;5112280;28;20231;-69
2022/09/01 02:40:08;;;;;;;19.97;16.07;;;;;;;13.33;100.00;98360.38;5108586;28;20233;-69
2022/09/01 02:42:39;;;;;;;19.50;16.33;;;;;;;13.32;100.00;98358.69;5108410;28;20281;-71
2022/09/01 02:45:15;;;;;;;17.57;15.37;;;;;;;13.28;100.00;98357.22;5106918;28;20233;-69
2022/09/01 02:47:47;;;;;;;16.80;14.90;;;;;;;13.25;100.00;98354.78;5111977;28;20270;-69
2022/09/01 02:50:15;;;;;;;16.60;14.77;;;;;;;13.19;100.00;98357.91;5100642;28;20236;-69
2022/09/01 02:52:43;;;;;;;17.73;15.13;;;;;;;13.20;100.00;98354.31;5108349;28;20291;-69
2022/09/01 02:55:11;;;;;;;19.00;16.10;;;;;;;13.15;100.00;98356.47;5111847;28;20302;-69
2022/09/01 02:57:38;;;;;;;18.93;16.27;;;;;;;13.19;100.00;98355.25;5111800;28;20312;-69
2022/09/01 03:00:19;;;;;;;18.40;15.47;;;;;;;13.18;100.00;98353.56;5108395;28;20259;-69
2022/09/01 03:02:50;;;;;;;17.10;15.30;;;;;;;13.13;100.00;98345.97;5109331;28;20262;-69
2022/09/01 03:05:18;;;;;;;18.63;16.33;;;;;;;13.13;100.00;98342.47;5111551;28;20226;-70
2022/09/01 03:07:44;;;;;;;18.60;15.67;;;;;;;13.13;100.00;98345.97;5109289;28;20225;-70
2022/09/01 03:10:11;;;;;;;19.73;16.40;;;;;;;13.13;100.00;98342.47;5107921;28;20234;-71
2022/09/01 03:12:38;;;;;;;18.20;15.57;;;;;;;13.08;100.00;98342.81;5108754;28;20293;-70
2022/09/01 03:15:06;;;;;;;18.80;15.37;;;;;;;13.08;100.00;98339.34;5111537;28;20261;-70
2022/09/01 03:17:33;;;;;;;18.73;14.87;;;;;;;13.04;100.00;98343.16;5111347;28;20276;-70
2022/09/01 03:20:02;;;;;;;17.17;15.33;;;;;;;12.99;100.00;98340.00;5107774;28;20280;-70
2022/09/01 03:22:29;;;;;;;16.30;14.60;;;;;;;12.95;100.00;98342.06;5107794;28;20298;-70
2022/09/01 03:24:56;;;;;;;17.60;15.20;;;;;;;12.90;100.00;98346.00;5111446;28;20288;-70
2022/09/01 03:27:23;;;;;;;18.03;15.67;;;;;;;12.89;100.00;98345.13;5111226;28;20672;-70
2022/09/01 03:29:50;;;;;;;18.40;15.13;;;;;;;12.87;100.00;98341.75;5108028;28;20228;-70
2022/09/01 03:32:17;;;;;;;20.77;16.37;;;;;;;12.86;100.00;98344.53;5105926;28;20293;-70
2022/09/01 03:34:44;;;;;;;20.53;16.30;;;;;;;12.84;100.00;98344.63;5111156;28;20224;-70
2022/09/01 03:37:12;;;;;;;18.97;16.03;;;;;;;12.82;100.00;98343.03;5111204;28;20232;-70
2022/09/01 03:39:39;;;;;;;17.93;15.07;;;;;;;12.78;100.00;98346.91;5108461;28;20264;-70
2022/09/01 03:42:09;;;;;;;18.40;15.57;;;;;;;12.72;100.00;98342.06;5107412;28;20590;-70
2022/09/01 03:44:39;;;;;;;17.67;15.33;;;;;;;12.67;100.00;98350.38;5110351;28;20233;-70
2022/09/01 03:47:09;;;;;;;16.37;14.13;;;;;;;12.62;100.00;98351.66;5111034;28;20695;-70
2022/09/01 03:49:38;;;;;;;15.67;13.47;;;;;;;12.52;100.00;98345.31;5108134;28;20257;-69
2022/09/01 03:52:07;;;;;;;15.83;14.13;;;;;;;12.52;100.00;98353.28;5106999;28;20259;-69
2022/09/01 03:54:36;;;;;;;18.63;15.60;;;;;;;12.50;100.00;98339.28;5110422;28;20586;-70
2022/09/01 03:57:04;;;;;;;18.27;15.47;;;;;;;12.42;100.00;98344.31;5110761;28;20222;-69
2022/09/01 03:59:32;;;;;;;17.90;14.57;;;;;;;12.41;100.00;98342.63;5098604;28;20373;-69
2022/09/01 04:02:01;;;;;;;16.70;14.93;;;;;;;12.43;100.00;98346.00;5107001;28;20285;-70
2022/09/01 04:04:30;;;;;;;15.93;14.27;;;;;;;12.42;100.00;98347.81;5109966;28;20228;-69
2022/09/01 04:06:57;;;;;;;17.87;15.10;;;;;;;12.43;100.00;98340.72;5110656;28;20234;-70
2022/09/01 04:09:23;;;;;;;17.73;14.73;;;;;;;12.44;100.00;98347.69;5107613;28;20576;-70
2022/09/01 04:11:51;;;;;;;17.57;14.13;;;;;;;12.43;100.00;98346.88;5106958;28;20232;-69
2022/09/01 04:14:19;;;;;;;16.80;14.57;;;;;;;12.43;100.00;98351.31;5109126;28;20225;-70
2022/09/01 04:19:35;;;;;;;18.40;14.73;;;;;;;12.45;100.00;98352.91;5099086;28;20217;-69
2022/09/01 04:22:03;;;;;;;18.60;15.77;;;;;;;12.50;100.00;98357.84;5107163;28;20711;-70
2022/09/01 04:24:32;;;;;;;18.53;15.63;;;;;;;12.47;100.00;98358.91;5108279;28;20232;-70
2022/09/01 04:27:02;;;;;;;17.43;15.13;;;;;;;12.43;100.00;98356.63;5109993;28;20225;-69
2022/09/01 04:29:30;;;;;;;16.87;14.37;;;;;;;12.35;100.00;98359.81;5106596;28;20227;-70
2022/09/01 04:32:02;;;;;;;16.07;14.17;;;;;;;12.29;100.00;98357.59;5107059;28;20532;-69
2022/09/01 04:34:35;;;;;;;17.07;14.50;;;;;;;12.24;100.00;98353.59;5110076;28;20227;-69
2022/09/01 04:37:04;;;;;;;17.90;14.37;;;;;;;12.25;100.00;98358.81;5108641;28;20223;-69
2022/09/01 04:39:31;;;;;;;18.03;14.47;;;;;;;12.21;100.00;98356.47;5106452;28;20244;-69
2022/09/01 04:41:58;;;;;;;18.97;14.83;;;;;;;12.20;100.00;98360.06;5107583;28;20633;-69
2022/09/01 04:44:27;;;;;;;17.17;14.47;;;;;;;12.20;100.00;98360.94;5110000;28;20526;-69
2022/09/01 04:46:54;;;;;;;17.27;15.17;;;;;;;12.23;100.00;98359.88;5108997;28;20224;-69
2022/09/01 04:49:25;;;;;;;17.73;15.20;;;;;;;12.25;100.00;98357.94;5106118;28;20227;-70
2022/09/01 04:51:53;;;;;;;18.50;14.77;;;;;;;12.27;100.00;98361.31;5105523;28;20248;-70
2022/09/01 04:54:20;;;;;;;19.50;16.20;;;;;;;12.23;100.00;98359.88;5109795;28;20227;-69
2022/09/01 04:56:49;;;;;;;20.53;16.03;;;;;;;12.32;100.00;98359.19;5108928;28;20680;-70
2022/09/01 04:59:19;;;;;;;22.73;17.60;;;;;;;12.38;100.00;98359.59;5106064;28;20223;-70
2022/09/01 05:01:49;;;;;;;21.00;16.87;;;;;;;12.48;100.00;98350.00;5107105;28;20335;-69
2022/09/01 05:04:19;;;;;;;20.07;16.90;;;;;;;12.61;100.00;98355.25;5109640;28;20254;-68
2022/09/01 05:06:49;;;;;;;21.80;17.57;;;;;;;12.66;100.00;98347.81;5108329;28;20227;-69
2022/09/01 05:09:17;;;;;;;18.77;15.87;;;;;;;12.68;100.00;98356.50;5105853;28;20711;-69
2022/09/01 05:11:45;;;;;;;22.07;17.00;;;;;;;12.73;100.00;98354.34;5107538;28;20283;-69
2022/09/01 05:14:12;;;;;;;20.70;17.87;;;;;;;12.82;100.00;98354.50;5109554;28;20233;-68
2022/09/01 05:16:40;;;;;;;20.30;16.40;;;;;;;12.80;100.00;98358.25;5107103;28;20227;-69
2022/09/01 05:19:13;;;;;;;18.23;15.57;;;;;;;12.85;100.00;98353.44;5105626;28;20310;-68
2022/09/01 05:21:40;;;;;;;18.63;15.53;;;;;;;12.89;100.00;98361.06;5101245;28;20245;-68
2022/09/01 05:24:07;;;;;;;18.73;16.30;;;;;;;12.97;100.00;98363.16;5109443;28;20307;-68
2022/09/01 05:26:34;;;;;;;18.83;15.97;;;;;;;13.04;100.00;98364.41;5108129;28;20223;-71
2022/09/01 05:29:09;;;;;;;20.37;16.87;;;;;;;13.15;100.00;98364.44;5105797;28;20557;-70
2022/09/01 05:31:36;;;;;;;21.57;17.13;;;;;;;13.23;100.00;98373.50;5107545;28;20570;-70
2022/09/01 05:34:03;;;;;;;22.23;18.20;;;;;;;13.33;100.00;98371.84;5109239;28;20228;-71
2022/09/01 05:36:32;;;;;;;19.87;17.17;;;;;;;13.42;100.00;98370.28;5107969;28;20360;-69
2022/09/01 05:38:59;;;;;;;24.20;18.60;;;;;;;13.56;100.00;98367.44;5105637;28;20292;-71
2022/09/01 05:41:27;;;;;;;21.43;18.13;;;;;;;13.61;100.00;98365.25;5106748;28;20223;-69
2022/09/01 05:43:54;;;;;;;22.60;17.83;;;;;;;13.67;100.00;98370.06;5107482;28;20236;-69
2022/09/01 05:46:25;;;;;;;22.70;18.47;;;;;;;13.73;100.00;98364.28;5108509;28;20225;-71
2022/09/01 05:48:53;;;;;;;23.73;18.57;;;;;;;13.79;100.00;98366.47;5105464;28;20235;-70
2022/09/01 05:51:22;;;;;;;25.00;19.53;;;;;;;13.87;100.00;98366.72;5106363;28;20302;-69
2022/09/01 05:53:50;;;;;;;23.93;18.83;;;;;;;13.88;100.00;98363.94;5109194;28;20334;-68
2022/09/01 05:56:19;;;;;;;22.37;18.40;;;;;;;13.95;100.00;98364.31;5108257;28;20661;-68
2022/09/01 05:58:47;;;;;;;23.30;18.50;;;;;;;13.98;100.00;98362.25;5105343;28;20277;-70
2022/09/01 06:01:20;;;;;;;24.07;19.33;;;;;;;14.08;100.00;98371.19;5106287;28;20230;-68
2022/09/01 06:03:48;;;;;;;25.43;19.43;;;;;;;14.21;100.00;98360.44;5109178;28;20264;-69
2022/09/01 06:06:16;;;;;;;26.23;19.77;;;;;;;14.32;100.00;98368.41;5107962;28;20224;-69
2022/09/01 06:08:47;;;;;;;27.27;20.47;;;;;;;14.46;100.00;98365.47;5105120;28;20225;-69
2022/09/01 06:11:16;;;;;;;24.73;19.77;;;;;;;14.57;100.00;98366.31;5105750;28;20277;-70
2022/09/01 06:13:43;;;;;;;29.17;20.63;;;;;;;14.68;100.00;98363.63;5108867;28;20228;-68
2022/09/01 06:16:11;;;;;;;25.63;18.80;;;;;;;14.72;100.00;98358.91;5107729;28;20312;-69
2022/09/01 06:18:38;;;;;;;26.57;20.03;;;;;;;14.78;100.00;98367.19;5105175;28;20221;-68
2022/09/01 06:21:07;;;;;;;26.80;21.43;;;;;;;14.88;100.00;98351.31;5105106;28;20251;-68
2022/09/01 06:23:34;;;;;;;27.77;21.23;;;;;;;15.04;100.00;98363.22;5108593;28;20249;-70
2022/09/01 06:26:02;;;;;;;25.07;19.47;;;;;;;15.10;100.00;98364.53;5108297;28;20612;-69
2022/09/01 06:28:30;;;;;;;26.73;20.37;;;;;;;15.25;100.00;98365.91;5105028;28;20256;-70
2022/09/01 06:30:57;;;;;;;23.47;18.60;;;;;;;15.43;100.00;98359.06;5105674;28;20269;-70
2022/09/01 06:33:24;;;;;;;24.90;18.57;;;;;;;15.45;100.00;98357.94;5111280;28;20225;-70
2022/09/01 06:35:54;;;;;;;23.27;19.60;;;;;;;15.53;100.00;98360.78;5110852;28;20587;-70
2022/09/01 06:38:21;;;;;;;22.40;17.63;;;;;;;15.58;100.00;98363.91;5101212;28;20631;-71
2022/09/01 06:40:48;;;;;;;21.50;17.63;;;;;;;15.62;100.00;98367.16;5108697;28;20689;-71
2022/09/01 06:43:16;;;;;;;20.40;16.60;;;;;;;15.75;100.00;98365.13;5112210;28;20298;-70
2022/09/01 06:45:48;;;;;;;22.60;18.23;;;;;;;15.87;100.00;98364.06;5112265;28;20312;-70
2022/09/01 06:48:16;;;;;;;21.90;17.40;;;;;;;16.02;100.00;98357.41;5100850;28;20223;-71
2022/09/01 06:50:44;;;;;;;20.97;17.10;;;;;;;16.12;100.00;98358.31;5108547;28;20222;-71
2022/09/01 06:53:15;;;;;;;20.03;16.97;;;;;;;16.23;100.00;98365.22;5112149;28;20253;-71
2022/09/01 06:55:42;;;;;;;19.10;16.40;;;;;;;16.32;100.00;98364.41;5112118;28;20645;-71
2022/09/01 06:58:14;;;;;;;19.50;16.07;;;;;;;16.43;100.00;98363.47;5100727;28;20223;-70
2022/09/01 07:00:42;;;;;;;19.97;16.10;;;;;;;16.50;100.00;98365.47;5108614;28;20230;-70
2022/09/01 07:03:13;;;;;;;20.13;16.53;;;;;;;16.61;100.00;98370.69;5110119;28;20246;-70
2022/09/01 07:05:41;;;;;;;19.77;16.10;;;;;;;16.72;100.00;98369.72;5111457;28;20221;-68
2022/09/01 07:08:12;;;;;;;18.17;15.20;;;;;;;16.81;100.00;98375.06;5108187;28;20563;-68
2022/09/01 07:10:44;;;;;;;17.40;14.90;;;;;;;16.96;100.00;98383.53;5109042;28;20229;-70
2022/09/01 07:13:21;;;;;;;19.23;14.67;;;;;;;17.20;100.00;98381.28;5111830;28;20253;-70
2022/09/01 07:15:49;;;;;;;15.50;13.63;;;;;;;17.50;100.00;98379.31;5109363;28;20222;-70
2022/09/01 07:18:19;;;;;;;15.57;13.63;;;;;;;17.83;100.00;98384.19;5108013;28;20227;-70
2022/09/01 07:20:47;;;;;;;17.10;13.03;;;;;;;18.08;100.00;98386.22;5110541;28;20223;-70
2022/09/01 07:23:16;;;;;;;15.53;13.87;;;;;;;18.46;100.00;98396.78;5111366;28;20237;-70
2022/09/01 07:25:44;;;;;;;15.87;13.93;;;;;;;18.75;100.00;98394.78;5109129;28;20309;-68
2022/09/01 07:28:12;;;;;;;15.27;13.57;;;;;;;19.00;100.00;98390.50;5105964;28;20227;-69
2022/09/01 07:30:42;;;;;;;13.63;12.23;;;;;;;19.36;100.00;98398.44;5110307;28;20524;-69
2022/09/01 07:33:11;;;;;;;13.43;12.03;;;;;;;19.60;99.62;98406.69;5111514;28;20253;-68
2022/09/01 07:35:41;;;;;;;14.03;11.73;;;;;;;19.57;98.08;98398.94;5109268;28;20253;-69
2022/09/01 07:38:08;;;;;;;12.67;10.40;;;;;;;19.47;98.03;98400.91;5107737;28;20230;-69
2022/09/01 07:40:36;;;;;;;12.37;10.87;;;;;;;19.31;97.51;98398.06;5110154;28;20284;-69
2022/09/01 07:43:07;;;;;;;14.33;11.60;;;;;;;19.33;96.68;98403.28;5111039;28;20291;-69
2022/09/01 07:45:36;;;;;;;12.17;10.87;;;;;;;19.43;96.72;98399.50;5107456;28;20222;-69
2022/09/01 07:48:05;;;;;;;12.40;11.10;;;;;;;19.45;96.35;98405.56;5107629;28;20226;-69
2022/09/01 07:50:32;;;;;;;11.33;10.13;;;;;;;19.41;96.13;98401.53;5110182;28;20237;-69
2022/09/01 07:53:00;;;;;;;10.37;8.90;;;;;;;19.30;94.46;98417.84;5111068;28;20608;-69
2022/09/01 07:55:27;;;;;;;9.63;8.63;;;;;;;19.25;93.54;98412.09;5107113;28;20530;-69
2022/09/01 07:57:54;;;;;;;9.90;8.90;;;;;;;19.27;92.61;98412.75;5107247;28;20226;-69
2022/09/01 08:00:21;;;;;;;10.37;8.97;;;;;;;19.37;91.98;98410.00;5098605;28;20226;-69
2022/09/01 08:02:49;;;;;;;10.30;8.97;;;;;;;19.42;91.24;98413.91;5102655;28;20244;-69
2022/09/01 08:05:21;;;;;;;10.60;8.90;;;;;;;19.54;89.28;98418.03;5106914;28;20260;-69
2022/09/01 08:07:48;;;;;;;9.83;7.93;;;;;;;19.62;88.93;98419.97;5105833;28;20238;-68
2022/09/01 08:10:16;;;;;;;8.63;7.77;;;;;;;19.77;87.11;98413.88;5107499;28;20314;-70
2022/09/01 08:12:43;;;;;;;12.30;8.03;;;;;;;19.97;85.66;98419.88;5110501;28;20225;-70
2022/09/01 08:15:12;;;;;;;9.80;8.80;;;;;;;20.21;85.50;98423.59;5109377;28;20257;-70
2022/09/01 08:17:39;;;;;;;9.23;8.23;;;;;;;20.41;83.26;98422.34;5106837;28;20309;-70
2022/09/01 08:20:07;;;;;;;9.80;8.80;;;;;;;20.65;84.07;98421.63;5107090;28;20226;-69
2022/09/01 08:22:36;;;;;;;9.67;8.70;;;;;;;20.89;83.16;98422.59;5109460;28;20254;-70
2022/09/01 08:25:03;;;;;;;10.10;8.83;;;;;;;21.13;81.76;98425.34;5109373;28;20222;-70
2022/09/01 08:27:32;;;;;;;8.03;7.23;;;;;;;21.24;80.23;98430.41;5106678;28;20222;-70
2022/09/01 08:29:59;;;;;;;9.00;7.53;;;;;;;21.17;79.86;98426.72;5107293;28;20227;-70
2022/09/01 08:32:26;;;;;;;8.43;7.63;;;;;;;21.09;78.64;98429.38;5109537;28;20283;-70
2022/09/01 08:34:53;;;;;;;7.57;6.87;;;;;;;20.90;80.45;98426.97;5108742;28;20280;-69
2022/09/01 08:37:20;;;;;;;7.50;6.80;;;;;;;20.99;80.14;98426.00;5106164;28;20226;-69
2022/09/01 08:39:48;;;;;;;8.40;7.60;;;;;;;21.16;79.09;98422.31;5106005;28;20237;-69
2022/09/01 08:42:24;;;;;;;8.77;7.57;;;;;;;21.31;77.93;98431.44;5092997;28;20252;-69
2022/09/01 08:45:01;;;;;;;7.80;7.00;;;;;;;21.49;78.13;98423.22;5109067;28;20224;-69
2022/09/01 08:47:28;;;;;;;7.87;7.07;;;;;;;21.58;76.52;98422.22;5104408;28;20229;-69
2022/09/01 08:49:56;;;;;;;7.70;7.00;;;;;;;21.52;75.92;98422.91;5107766;28;20231;-69
2022/09/01 08:52:29;;;;;;;8.13;7.33;;;;;;;21.31;76.01;98426.06;5109631;28;20307;-69
2022/09/01 08:55:00;;;;;;;8.53;7.43;;;;;;;21.16;77.62;98432.25;5107672;28;20283;-69
2022/09/01 08:57:34;;;;;;;7.67;6.97;;;;;;;21.17;77.13;98432.09;5105963;28;20233;-69
2022/09/01 09:00:02;;;;;;;8.13;7.33;;;;;;;21.31;76.54;98436.81;5105522;28;20226;-69
2022/09/01 09:02:43;;;;;;;7.40;6.70;;;;;;;21.41;75.85;98436.66;5109471;28;20239;-69
2022/09/01 09:05:32;;;;;;;6.73;6.13;;;;;;;21.37;75.33;98425.41;5098945;28;20276;-69
2022/09/01 09:08:28;;;;;;;8.47;7.67;;;;;;;21.42;74.79;98432.97;5092334;28;20278;-69
2022/09/01 09:11:00;;;;;;;7.27;6.57;;;;;;;21.41;74.77;98437.50;5106339;28;20230;-69
2022/09/01 09:13:39;;;;;;;7.33;6.63;;;;;;;21.31;74.67;98442.19;5103965;28;20268;-69
2022/09/01 09:16:12;;;;;;;5.83;5.30;;;;;;;21.23;73.76;98438.66;5095118;28;20272;-69
2022/09/01 09:18:44;;;;;;;5.77;5.27;;;;;;;21.34;73.46;98441.84;5108070;28;20233;-69
2022/09/01 09:21:18;;;;;;;5.90;5.40;;;;;;;21.50;72.67;98441.03;5100624;28;20561;-69
2022/09/01 09:23:48;;;;;;;6.17;5.57;;;;;;;21.50;72.15;98438.34;5108522;28;20241;-69
2022/09/01 09:26:15;;;;;;;6.20;5.60;;;;;;;21.40;72.78;98433.13;5109207;28;20225;-69
2022/09/01 09:28:42;;;;;;;6.07;5.43;;;;;;;21.37;72.79;98432.59;5106711;28;20228;-69
2022/09/01 09:31:32;;;;;;;7.07;5.70;;;;;;;21.34;72.73;98431.09;5105594;28;20249;-69
2022/09/01 09:34:00;;;;;;;6.47;5.87;;;;;;;21.47;73.59;98426.06;5095687;28;20563;-69
2022/09/01 09:36:33;;;;;;;5.67;5.17;;;;;;;21.55;73.92;98438.69;5108314;28;20221;-69
2022/09/01 09:39:10;;;;;;;5.77;5.27;;;;;;;21.56;73.05;98432.28;5103887;28;20222;-69
2022/09/01 09:41:38;;;;;;;6.17;5.57;;;;;;;21.57;71.31;98436.69;5108581;28;20265;-69
2022/09/01 09:44:16;;;;;;;6.20;5.00;;;;;;;21.46;71.11;98437.84;5109071;28;20280;-70
2022/09/01 09:46:47;;;;;;;4.83;4.43;;;;;;;21.39;71.19;98438.69;5097643;28;20222;-69
2022/09/01 09:49:19;;;;;;;5.03;4.43;;;;;;;21.38;70.67;98431.59;5105662;28;20226;-69
2022/09/01 09:51:48;;;;;;;4.93;4.43;;;;;;;21.33;69.99;98431.28;5108969;28;20264;-69
2022/09/01 09:54:19;;;;;;;5.50;4.97;;;;;;;21.44;69.65;98428.25;5108543;28;20680;-69
2022/09/01 09:56:46;;;;;;;5.03;4.60;;;;;;;21.62;69.94;98427.09;5105304;28;20694;-70
2022/09/01 09:59:21;;;;;;;4.73;4.33;;;;;;;21.90;68.81;98428.47;5106191;28;20261;-69
2022/09/01 10:01:52;;;;;;;4.40;4.00;;;;;;;22.23;67.94;98424.72;5108919;28;20250;-69
2022/09/01 10:04:34;;;;;;;4.20;3.80;;;;;;;22.48;65.53;98423.66;5107242;28;20245;-71
2022/09/01 10:07:01;;;;;;;4.97;4.47;;;;;;;22.63;64.19;98421.09;5103965;28;20219;-70
2022/09/01 10:09:37;;;;;;;4.57;4.17;;;;;;;22.79;65.75;98421.88;5095530;28;20312;-70
2022/09/01 10:12:05;;;;;;;4.20;3.80;;;;;;;23.04;63.50;98415.34;5112635;28;20228;-69
2022/09/01 10:14:41;;;;;;;4.10;3.80;;;;;;;23.22;61.31;98423.19;5102147;28;20256;-69
2022/09/01 10:17:14;;;;;;;4.63;4.23;;;;;;;23.39;61.35;98425.59;5110458;28;20225;-69
2022/09/01 10:19:49;;;;;;;5.00;4.10;;;;;;;23.61;60.51;98419.38;5112717;28;20282;-70
2022/09/01 10:22:15;;;;;;;4.70;3.90;;;;;;;23.89;60.05;98417.81;5109242;28;20252;-70
2022/09/01 10:24:43;;;;;;;4.33;3.93;;;;;;;24.00;59.45;98422.78;5108756;28;20246;-70
2022/09/01 10:27:18;;;;;;;4.20;3.83;;;;;;;24.01;57.46;98415.53;5111236;28;20227;-70
2022/09/01 10:29:48;;;;;;;4.10;3.70;;;;;;;24.06;58.32;98413.94;5112437;28;20256;-69
2022/09/01 10:32:21;;;;;;;4.07;3.70;;;;;;;24.18;58.04;98423.28;5107531;28;20222;-70
2022/09/01 10:34:48;;;;;;;3.90;3.60;;;;;;;24.15;55.69;98418.22;5108765;28;20593;-70
2022/09/01 10:37:16;;;;;;;4.10;3.70;;;;;;;24.13;55.80;98417.59;5095205;28;20261;-69
2022/09/01 10:40:16;;;;;;;3.70;3.40;;;;;;;24.13;56.48;98414.88;5112285;28;20264;-69
2022/09/01 10:42:45;;;;;;;4.27;3.87;;;;;;;24.12;56.26;98410.50;5104462;28;20265;-70
2022/09/01 10:45:30;;;;;;;3.93;3.60;;;;;;;24.05;56.84;98416.81;5095105;28;20576;-70
2022/09/01 10:48:28;;;;;;;4.17;3.87;;;;;;;23.77;57.27;98413.84;5110636;28;20222;-70
2022/09/01 10:51:33;;;;;;;4.53;4.13;;;;;;;23.54;58.79;98410.31;5110229;28;20313;-70
2022/09/01 10:54:00;;;;;;;4.63;4.10;;;;;;;23.50;59.56;98411.72;5109342;28;20218;-69
2022/09/01 10:56:38;;;;;;;4.47;4.07;;;;;;;23.55;59.70;98398.53;5108153;28;20258;-70
2022/09/01 10:59:09;;;;;;;3.93;3.57;;;;;;;23.72;58.90;98410.84;5093409;28;20230;-69
2022/09/01 11:02:08;;;;;;;4.00;3.70;;;;;;;23.97;58.47;98404.25;5111886;28;20271;-70
2022/09/01 11:04:54;;;;;;;3.73;3.37;;;;;;;;;;5104807;28;20247;-70
2022/09/01 11:07:32;;;;;;;4.00;3.70;;;;;;;24.68;56.76;98404.50;5111843;28;20608;-70
2022/09/01 11:10:26;;;;;;;4.30;4.00;;;;;;;24.89;53.89;98396.47;5108283;28;20230;-70
2022/09/01 11:13:13;;;;;;;3.90;3.50;;;;;;;24.84;54.04;98393.50;5111104;28;20225;-70
2022/09/01 11:15:42;;;;;;;3.80;3.50;;;;;;;24.79;55.66;98395.06;5110306;28;20229;-70
2022/09/01 11:18:13;;;;;;;3.60;3.30;;;;;;;24.72;55.50;98391.44;5107521;28;20318;-69
2022/09/01 11:20:43;;;;;;;4.03;3.73;;;;;;;24.44;55.91;98396.66;5108997;28;20215;-69
2022/09/01 11:23:21;;;;;;;4.10;3.47;;;;;;;24.08;56.27;98390.28;5111328;28;20229;-69
2022/09/01 11:25:49;;;;;;;4.17;3.77;;;;;;;23.72;57.44;98391.94;5106594;28;20312;-70
2022/09/01 11:28:41;;;;;;;4.27;3.97;;;;;;;23.45;58.93;98387.13;5107582;28;20592;-69
2022/09/01 11:31:29;;;;;;;4.20;3.80;;;;;;;23.28;60.64;98380.16;5099831;28;20222;-70
2022/09/01 11:34:18;;;;;;;3.70;3.40;;;;;;;23.32;60.12;98386.03;5100700;28;20231;-70
2022/09/01 11:36:51;;;;;;;3.73;3.43;;;;;;;23.53;60.06;98384.34;5094295;28;20328;-70
2022/09/01 11:39:34;;;;;;;4.00;3.70;;;;;;;23.85;58.67;98373.28;5111272;28;20225;-70